Terminal Aerodrome Forecast
Issued by NWS Omaha/Valley, NE

Home | Current Version | Previous Version | Graphics & Text | Print | Product List | Glossary On
Versions: 1 2 3 4 5 6 7 8 9 10 11 12 13 14 15 16 17 18 19 20 21 22 23 24 25 26 27 28 29 30 31 32 33 34 35 36 37 38 39 40 41 42 43 44 45 46 47 48 49 50
000
FTUS43 KOAX 220540
TAFOFK
TAF
KOFK 220540Z 2206/2306 18014KT P6SM -RA OVC008
     FM220800 18012KT 5SM -RA BR OVC006
      TEMPO 2209/2211 2SM -RA
     FM221300 30011KT 6SM BR OVC008
     FM230300 31013KT 4SM -SN BR OVC008=

USA.gov is the U.S. government's official web portal to all federal, state and local government web resources and services.